Time;durP1;ratioP1;P1;durP2;ratioP2;P2;SDS_P1;SDS_P2;PMS_P1;PMS_P2;Temp;Humidity;BMP_temperature;BMP_pressure;BME280_temperature;BME280_humidity;BME280_pressure;Samples;Min_cycle;Max_cycle;Signal;HPM_P1;HPM_P2
2023/06/18 00:00:12;;;;;;;;;;;15.30;99.90;;;;;;5026877;28;20484;-83
2023/06/18 00:02:45;;;;;;;;;;;15.20;99.90;;;;;;5030283;28;19952;-82
2023/06/18 00:05:11;;;;;;;;;;;15.20;99.90;;;;;;5015012;28;20004;-82
2023/06/18 00:07:40;;;;;;;;;;;15.20;99.90;;;;;;5012195;28;20349;-83
2023/06/18 00:10:10;;;;;;;;;;;15.10;99.90;;;;;;5016155;28;19929;-83
2023/06/18 00:12:41;;;;;;;;;;;15.00;99.90;;;;;;5030743;28;19925;-83
2023/06/18 00:15:09;;;;;;;;;;;14.90;99.90;;;;;;5031632;28;19936;-83
2023/06/18 00:17:35;;;;;;;;;;;15.00;99.90;;;;;;5011606;28;19929;-83
2023/06/18 00:20:01;;;;;;;;;;;14.90;99.90;;;;;;4995900;28;19925;-82
2023/06/18 00:22:27;;;;;;;;;;;14.70;99.90;;;;;;5025092;28;19929;-82
2023/06/18 00:24:54;;;;;;;;;;;15.00;99.90;;;;;;5014933;28;19937;-83
2023/06/18 00:27:20;;;;;;;;;;;15.00;99.90;;;;;;5031358;28;19929;-83
2023/06/18 00:29:47;;;;;;;;;;;15.00;99.90;;;;;;5013950;28;20292;-83
2023/06/18 00:32:14;;;;;;;;;;;15.10;99.90;;;;;;5012436;28;19925;-83
2023/06/18 00:34:42;;;;;;;;;;;15.10;99.90;;;;;;5011053;28;19980;-83
2023/06/18 00:37:09;;;;;;;;;;;14.30;99.90;;;;;;5043013;28;19976;-82
2023/06/18 00:39:38;;;;;;;;;;;15.10;99.90;;;;;;5013421;28;19925;-83
2023/06/18 00:42:16;;;;;;;;;;;15.10;99.90;;;;;;5044532;28;19925;-83
2023/06/18 00:44:42;;;;;;;;;;;15.20;99.90;;;;;;4995348;28;19925;-83
2023/06/18 00:47:15;;;;;;;;;;;15.00;99.90;;;;;;5014576;28;20007;-82
2023/06/18 00:49:47;;;;;;;;;;;14.40;99.90;;;;;;5014065;28;19929;-83
2023/06/18 00:52:23;;;;;;;;;;;15.00;99.90;;;;;;4981496;28;20318;-83
2023/06/18 00:54:57;;;;;;;;;;;14.90;99.90;;;;;;4982843;28;19925;-82
2023/06/18 00:57:29;;;;;;;;;;;15.00;99.90;;;;;;4992928;28;19977;-83
2023/06/18 01:00:12;;;;;;;;;;;14.90;99.90;;;;;;4967634;28;19929;-83
2023/06/18 01:02:49;;;;;;;;;;;15.00;99.90;;;;;;4989519;28;19941;-83
2023/06/18 01:05:16;;;;;;;;;;;15.00;99.90;;;;;;5003109;28;20008;-83
2023/06/18 01:07:48;;;;;;;;;;;15.00;99.90;;;;;;5001050;28;19925;-83
2023/06/18 01:10:28;;;;;;;;;;;14.90;99.90;;;;;;5002209;28;20442;-82
2023/06/18 01:13:00;;;;;;;;;;;14.80;99.90;;;;;;5002016;28;19933;-83
2023/06/18 01:15:29;;;;;;;;;;;13.70;99.90;;;;;;4995929;28;20092;-82
2023/06/18 01:17:57;;;;;;;;;;;14.70;99.90;;;;;;4980988;28;19926;-82
2023/06/18 01:20:25;;;;;;;;;;;14.60;99.90;;;;;;4975339;28;19973;-82
2023/06/18 01:23:00;;;;;;;;;;;14.60;99.90;;;;;;5018474;28;20012;-84
2023/06/18 01:25:27;;;;;;;;;;;14.60;99.90;;;;;;5025765;28;20262;-83
2023/06/18 01:27:53;;;;;;;;;;;14.60;99.90;;;;;;5007015;28;19926;-83
2023/06/18 01:30:21;;;;;;;;;;;14.60;99.90;;;;;;5014180;28;19933;-82
2023/06/18 01:32:48;;;;;;;;;;;14.60;99.90;;;;;;4996814;28;20015;-82
2023/06/18 01:35:15;;;;;;;;;;;14.60;99.90;;;;;;5011241;28;19983;-83
2023/06/18 01:38:01;;;;;;;;;;;14.60;99.90;;;;;;5021745;28;19951;-83
2023/06/18 01:40:57;;;;;;;;;;;14.60;99.90;;;;;;5031486;28;20004;-83
2023/06/18 01:43:57;;;;;;;;;;;14.70;99.90;;;;;;5031540;28;21021;-83
2023/06/18 01:46:32;;;;;;;;;;;14.60;99.90;;;;;;5020777;28;19971;-83
2023/06/18 01:48:59;;;;;;;;;;;14.50;99.90;;;;;;4998226;28;19932;-82
2023/06/18 01:51:27;;;;;;;;;;;14.50;99.90;;;;;;5017268;28;19980;-83
2023/06/18 01:54:07;;;;;;;;;;;14.50;99.90;;;;;;5034585;28;20307;-83
2023/06/18 01:56:34;;;;;;;;;;;14.50;99.90;;;;;;5018335;28;19932;-83
2023/06/18 01:59:03;;;;;;;;;;;14.50;99.90;;;;;;5036052;28;20278;-82
2023/06/18 02:01:36;;;;;;;;;;;14.50;99.90;;;;;;5033674;28;20347;-83
2023/06/18 02:04:11;;;;;;;;;;;14.50;99.90;;;;;;5031287;28;19925;-82
2023/06/18 02:06:37;;;;;;;;;;;14.60;99.90;;;;;;5032037;28;19925;-83
2023/06/18 02:09:09;;;;;;;;;;;14.50;99.90;;;;;;5017938;28;19936;-82
2023/06/18 02:11:35;;;;;;;;;;;14.50;99.90;;;;;;5000185;28;19929;-84
2023/06/18 02:14:11;;;;;;;;;;;14.40;99.90;;;;;;5019116;28;19975;-84
2023/06/18 02:16:51;;;;;;;;;;;14.40;99.90;;;;;;5032841;28;20321;-83
2023/06/18 02:19:18;;;;;;;;;;;14.30;99.90;;;;;;5014787;28;19932;-84
2023/06/18 02:21:43;;;;;;;;;;;14.20;99.90;;;;;;5015886;28;19925;-84
2023/06/18 02:24:18;;;;;;;;;;;14.10;99.90;;;;;;5021800;28;19944;-84
2023/06/18 02:26:48;;;;;;;;;;;14.00;99.90;;;;;;5014327;28;20385;-83
2023/06/18 02:29:14;;;;;;;;;;;14.00;99.90;;;;;;5033661;28;19932;-82
2023/06/18 02:31:50;;;;;;;;;;;13.90;99.90;;;;;;5032412;28;19929;-83
2023/06/18 02:34:27;;;;;;;;;;;13.90;99.90;;;;;;5015253;28;19955;-82
2023/06/18 02:36:55;;;;;;;;;;;13.80;99.90;;;;;;5013989;28;20031;-83
2023/06/18 02:39:22;;;;;;;;;;;13.70;99.90;;;;;;5034503;28;19925;-83
2023/06/18 02:41:57;;;;;;;;;;;13.60;99.90;;;;;;5001026;28;19933;-83
2023/06/18 02:44:31;;;;;;;;;;;13.30;99.90;;;;;;5025462;28;19932;-83
2023/06/18 02:47:00;;;;;;;;;;;13.10;99.90;;;;;;5033761;28;19925;-84
2023/06/18 02:49:30;;;;;;;;;;;13.00;99.90;;;;;;5032557;28;19933;-84
2023/06/18 02:51:55;;;;;;;;;;;13.00;99.90;;;;;;5034130;28;19929;-82
2023/06/18 02:54:31;;;;;;;;;;;12.90;99.90;;;;;;5034411;28;19996;-83
2023/06/18 02:56:59;;;;;;;;;;;12.90;99.90;;;;;;5026903;28;20012;-83
2023/06/18 02:59:35;;;;;;;;;;;12.80;99.90;;;;;;5033245;28;19925;-82
2023/06/18 03:02:04;;;;;;;;;;;12.70;99.90;;;;;;5000389;28;19932;-82
2023/06/18 03:04:30;;;;;;;;;;;12.60;99.90;;;;;;5032728;28;19936;-85
2023/06/18 03:06:59;;;;;;;;;;;12.60;99.90;;;;;;5014018;28;20226;-82
2023/06/18 03:09:25;;;;;;;;;;;12.70;99.90;;;;;;5028899;28;19932;-83
2023/06/18 03:11:57;;;;;;;;;;;12.70;99.90;;;;;;5000525;28;19932;-84
2023/06/18 03:14:25;;;;;;;;;;;11.90;99.90;;;;;;5024613;28;19932;-83
2023/06/18 03:17:00;;;;;;;;;;;13.10;99.90;;;;;;5017195;28;20373;-84
2023/06/18 03:19:26;;;;;;;;;;;13.30;99.90;;;;;;5032566;28;19925;-83
2023/06/18 03:21:52;;;;;;;;;;;13.40;99.90;;;;;;4997126;28;20018;-83
2023/06/18 03:24:19;;;;;;;;;;;13.50;99.90;;;;;;5032080;28;19948;-83
2023/06/18 03:26:45;;;;;;;;;;;13.60;99.90;;;;;;5034615;28;19925;-83
2023/06/18 03:29:11;;;;;;;;;;;13.60;99.90;;;;;;5029872;28;20337;-83
2023/06/18 03:31:39;;;;;;;;;;;13.70;99.90;;;;;;5027524;28;19976;-83
2023/06/18 03:34:07;;;;;;;;;;;13.70;99.90;;;;;;5007920;28;20393;-82
2023/06/18 03:36:41;;;;;;;;;;;13.70;99.90;;;;;;5025042;28;19926;-83
2023/06/18 03:39:09;;;;;;;;;;;13.70;99.90;;;;;;5033034;28;19925;-83
2023/06/18 03:41:35;;;;;;;;;;;13.80;99.90;;;;;;5013138;28;19926;-85
2023/06/18 03:44:04;;;;;;;;;;;13.70;99.90;;;;;;5009186;28;20376;-85
2023/06/18 03:46:30;;;;;;;;;;;13.80;99.90;;;;;;5028561;28;20001;-82
2023/06/18 03:48:57;;;;;;;;;;;13.80;99.90;;;;;;5011315;28;19945;-82
2023/06/18 03:51:24;;;;;;;;;;;13.70;99.90;;;;;;5041448;28;19932;-82
2023/06/18 03:53:50;;;;;;;;;;;13.80;99.90;;;;;;4998818;28;19925;-83
2023/06/18 03:56:16;;;;;;;;;;;13.80;99.90;;;;;;5028684;28;20021;-83
2023/06/18 03:58:43;;;;;;;;;;;13.80;99.90;;;;;;5048389;28;20044;-83
2023/06/18 04:01:09;;;;;;;;;;;13.80;99.90;;;;;;5031823;28;19972;-83
2023/06/18 04:03:36;;;;;;;;;;;13.70;99.90;;;;;;5011861;28;19968;-83
2023/06/18 04:06:01;;;;;;;;;;;13.80;99.90;;;;;;5016285;28;19929;-83
2023/06/18 04:08:28;;;;;;;;;;;13.70;99.90;;;;;;5032719;28;20292;-83
2023/06/18 04:10:55;;;;;;;;;;;13.80;99.90;;;;;;5015870;28;19929;-84
2023/06/18 04:13:20;;;;;;;;;;;13.80;99.90;;;;;;5013800;28;19932;-83
2023/06/18 04:15:47;;;;;;;;;;;13.80;99.90;;;;;;5031953;28;20384;-84
2023/06/18 04:18:14;;;;;;;;;;;13.80;99.90;;;;;;5027438;28;19936;-84
2023/06/18 04:20:40;;;;;;;;;;;13.90;99.90;;;;;;5010580;28;19926;-84
2023/06/18 04:23:07;;;;;;;;;;;13.90;99.90;;;;;;5011969;28;19926;-84
2023/06/18 04:25:40;;;;;;;;;;;13.90;99.90;;;;;;5032959;28;20270;-84
2023/06/18 04:28:07;;;;;;;;;;;13.90;99.90;;;;;;5025504;28;19925;-83
2023/06/18 04:30:32;;;;;;;;;;;14.00;99.90;;;;;;5012883;28;19929;-83
2023/06/18 04:32:58;;;;;;;;;;;14.00;99.90;;;;;;4997692;28;19940;-84
2023/06/18 04:35:24;;;;;;;;;;;14.10;99.90;;;;;;4995744;28;19926;-84
2023/06/18 04:37:50;;;;;;;;;;;13.00;99.90;;;;;;5015396;28;19983;-83
2023/06/18 04:40:16;;;;;;;;;;;14.10;99.90;;;;;;5027335;28;20330;-83
2023/06/18 04:42:41;;;;;;;;;;;14.10;99.90;;;;;;5031420;28;20389;-83
2023/06/18 04:45:09;;;;;;;;;;;14.20;99.90;;;;;;4995600;28;19926;-83
2023/06/18 04:47:34;;;;;;;;;;;14.20;99.90;;;;;;5007941;28;20341;-83
2023/06/18 04:50:02;;;;;;;;;;;14.30;99.90;;;;;;5028462;28;20342;-84
2023/06/18 04:52:28;;;;;;;;;;;14.40;99.90;;;;;;5015065;28;19929;-83
2023/06/18 04:54:57;;;;;;;;;;;14.40;99.90;;;;;;5032376;28;20361;-83
2023/06/18 04:57:23;;;;;;;;;;;14.50;99.90;;;;;;5032125;28;19972;-83
2023/06/18 04:59:55;;;;;;;;;;;14.60;99.90;;;;;;5013068;28;19932;-83
2023/06/18 05:02:21;;;;;;;;;;;14.60;99.90;;;;;;5008622;28;20012;-83
2023/06/18 05:04:47;;;;;;;;;;;14.60;99.90;;;;;;5010916;28;19994;-83
2023/06/18 05:07:12;;;;;;;;;;;14.70;99.90;;;;;;5009861;28;20032;-84
2023/06/18 05:09:39;;;;;;;;;;;14.80;99.90;;;;;;5012799;28;19938;-84
2023/06/18 05:12:07;;;;;;;;;;;14.80;99.90;;;;;;5030296;28;19937;-84
2023/06/18 05:14:34;;;;;;;;;;;14.90;99.90;;;;;;5029462;28;20361;-83
2023/06/18 05:16:59;;;;;;;;;;;14.90;99.90;;;;;;5032346;28;19940;-83
2023/06/18 05:19:31;;;;;;;;;;;15.00;99.90;;;;;;5013374;28;19926;-83
2023/06/18 05:21:58;;;;;;;;;;;15.10;99.90;;;;;;5034390;28;19971;-84
2023/06/18 05:24:23;;;;;;;;;;;15.10;99.90;;;;;;5035047;28;19925;-83
2023/06/18 05:26:49;;;;;;;;;;;15.10;99.90;;;;;;5034465;28;19933;-83
2023/06/18 05:29:16;;;;;;;;;;;15.20;99.90;;;;;;5035173;28;20293;-83
2023/06/18 05:31:43;;;;;;;;;;;15.30;99.90;;;;;;5015789;28;19926;-83
2023/06/18 05:34:08;;;;;;;;;;;15.30;99.90;;;;;;5034267;28;19929;-83
2023/06/18 05:36:34;;;;;;;;;;;15.40;99.90;;;;;;5017046;28;20064;-83
2023/06/18 05:39:03;;;;;;;;;;;14.60;99.90;;;;;;5014100;28;20008;-83
2023/06/18 05:41:29;;;;;;;;;;;15.50;99.90;;;;;;5029693;28;20076;-83
2023/06/18 05:43:56;;;;;;;;;;;15.60;99.90;;;;;;4995811;28;19932;-83
2023/06/18 05:46:24;;;;;;;;;;;15.70;99.90;;;;;;5048673;28;20451;-83
2023/06/18 05:48:50;;;;;;;;;;;15.80;99.90;;;;;;5007111;28;19980;-84
2023/06/18 05:51:16;;;;;;;;;;;15.90;99.90;;;;;;4999133;28;19964;-83
2023/06/18 05:53:44;;;;;;;;;;;15.90;99.90;;;;;;5034491;28;20387;-83
2023/06/18 05:56:16;;;;;;;;;;;15.90;99.90;;;;;;5030465;28;19975;-83
2023/06/18 05:58:42;;;;;;;;;;;16.00;99.90;;;;;;5034889;28;20319;-84
2023/06/18 06:01:10;;;;;;;;;;;16.10;99.90;;;;;;5034353;28;19925;-85
2023/06/18 06:03:37;;;;;;;;;;;16.10;99.90;;;;;;5030712;28;19931;-84
2023/06/18 06:06:03;;;;;;;;;;;16.20;99.90;;;;;;5034445;28;20055;-83
2023/06/18 06:08:29;;;;;;;;;;;16.30;99.90;;;;;;5034205;28;19991;-84
2023/06/18 06:10:54;;;;;;;;;;;16.40;99.90;;;;;;5000690;28;20361;-84
2023/06/18 06:13:24;;;;;;;;;;;16.50;99.90;;;;;;5026528;28;19976;-83
2023/06/18 06:15:50;;;;;;;;;;;16.60;99.90;;;;;;5034058;28;19932;-83
2023/06/18 06:18:19;;;;;;;;;;;16.60;99.90;;;;;;5033160;28;19929;-83
2023/06/18 06:20:46;;;;;;;;;;;16.70;99.90;;;;;;5017578;28;19971;-83
2023/06/18 06:23:12;;;;;;;;;;;16.80;99.90;;;;;;5017415;28;19991;-83
2023/06/18 06:25:41;;;;;;;;;;;16.90;99.90;;;;;;5034044;28;19932;-85
2023/06/18 06:28:08;;;;;;;;;;;17.00;99.90;;;;;;5001078;28;19925;-85
2023/06/18 06:30:35;;;;;;;;;;;17.00;99.90;;;;;;5013310;28;19968;-84
2023/06/18 06:33:00;;;;;;;;;;;17.10;99.90;;;;;;5030903;28;19998;-83
2023/06/18 06:35:28;;;;;;;;;;;17.20;99.90;;;;;;4999936;28;19929;-85
2023/06/18 06:37:55;;;;;;;;;;;17.40;99.90;;;;;;5015844;28;20100;-83
2023/06/18 06:40:26;;;;;;;;;;;17.50;99.90;;;;;;5035400;28;19970;-86
2023/06/18 06:42:52;;;;;;;;;;;17.60;99.90;;;;;;5033839;28;19925;-84
2023/06/18 06:45:17;;;;;;;;;;;17.70;99.90;;;;;;5016889;28;19932;-86
2023/06/18 06:47:43;;;;;;;;;;;17.80;99.90;;;;;;5013071;28;20289;-84
2023/06/18 06:50:09;;;;;;;;;;;18.00;99.90;;;;;;5028010;28;20304;-84
2023/06/18 06:52:34;;;;;;;;;;;18.00;99.90;;;;;;5011599;28;19925;-84
2023/06/18 06:55:00;;;;;;;;;;;18.10;99.90;;;;;;5017403;28;19925;-84
2023/06/18 06:57:26;;;;;;;;;;;18.10;99.90;;;;;;5016427;28;19932;-84
2023/06/18 06:59:51;;;;;;;;;;;18.20;99.90;;;;;;5007792;28;19933;-83
2023/06/18 07:02:19;;;;;;;;;;;18.20;99.90;;;;;;4998172;28;19925;-84
2023/06/18 07:04:47;;;;;;;;;;;18.20;99.90;;;;;;5017262;28;19925;-85
2023/06/18 07:07:14;;;;;;;;;;;18.30;99.90;;;;;;5000949;28;20366;-84
2023/06/18 07:09:40;;;;;;;;;;;18.30;99.90;;;;;;5014070;28;19925;-84
2023/06/18 07:12:05;;;;;;;;;;;18.30;99.90;;;;;;5007251;28;20278;-84
2023/06/18 07:14:31;;;;;;;;;;;18.50;99.90;;;;;;5026436;28;19980;-84
2023/06/18 07:16:57;;;;;;;;;;;18.50;99.90;;;;;;5011008;28;20012;-84
2023/06/18 07:19:23;;;;;;;;;;;18.70;99.90;;;;;;5004772;28;20382;-84
2023/06/18 07:21:50;;;;;;;;;;;18.70;99.90;;;;;;5031734;28;19937;-84
2023/06/18 07:24:16;;;;;;;;;;;18.80;99.90;;;;;;5013099;28;19929;-84
2023/06/18 07:26:42;;;;;;;;;;;18.80;99.90;;;;;;5044230;28;19932;-84
2023/06/18 07:29:07;;;;;;;;;;;18.80;99.90;;;;;;5049888;28;19925;-85
2023/06/18 07:31:33;;;;;;;;;;;18.80;99.90;;;;;;5029867;28;19971;-83
2023/06/18 07:33:59;;;;;;;;;;;18.90;99.90;;;;;;5026502;28;19929;-84
2023/06/18 07:36:24;;;;;;;;;;;18.90;99.90;;;;;;5000416;28;19925;-84
2023/06/18 07:38:50;;;;;;;;;;;19.00;99.90;;;;;;5009117;28;20362;-84
2023/06/18 07:41:16;;;;;;;;;;;19.10;99.90;;;;;;4993819;28;19931;-85
2023/06/18 07:43:42;;;;;;;;;;;19.20;99.90;;;;;;5011955;28;20273;-84
2023/06/18 07:46:08;;;;;;;;;;;19.30;99.90;;;;;;5030344;28;19925;-84
2023/06/18 07:48:33;;;;;;;;;;;19.40;99.90;;;;;;5029019;28;19996;-85
2023/06/18 07:50:59;;;;;;;;;;;19.60;99.90;;;;;;4998534;28;19929;-84
2023/06/18 07:53:24;;;;;;;;;;;19.60;99.90;;;;;;5012875;28;19926;-85
2023/06/18 07:55:50;;;;;;;;;;;19.80;99.90;;;;;;5015124;28;19983;-85
2023/06/18 07:58:16;;;;;;;;;;;19.90;99.90;;;;;;5011555;28;19932;-84
2023/06/18 08:00:41;;;;;;;;;;;19.90;99.90;;;;;;5019194;28;19925;-85
2023/06/18 08:03:07;;;;;;;;;;;20.10;99.90;;;;;;4999241;28;19924;-88
2023/06/18 08:05:33;;;;;;;;;;;20.10;99.90;;;;;;5014631;28;20327;-86
2023/06/18 08:07:58;;;;;;;;;;;20.30;99.90;;;;;;5005903;28;19929;-84
2023/06/18 08:10:24;;;;;;;;;;;20.40;99.90;;;;;;5016241;28;19931;-85
2023/06/18 08:12:50;;;;;;;;;;;20.40;99.90;;;;;;5032751;28;19925;-84
2023/06/18 08:15:15;;;;;;;;;;;20.60;99.90;;;;;;5012163;28;19964;-84
2023/06/18 08:17:41;;;;;;;;;;;20.80;99.90;;;;;;5011962;28;19929;-85
2023/06/18 08:20:07;;;;;;;;;;;21.00;99.90;;;;;;5007202;28;19925;-84
2023/06/18 08:22:33;;;;;;;;;;;21.00;99.90;;;;;;5020322;28;19929;-85
2023/06/18 08:24:59;;;;;;;;;;;21.10;99.90;;;;;;5008125;28;20396;-83
2023/06/18 08:27:25;;;;;;;;;;;21.10;99.90;;;;;;4988909;28;19925;-84
2023/06/18 08:29:53;;;;;;;;;;;21.20;99.90;;;;;;4992518;28;20289;-85
2023/06/18 08:32:18;;;;;;;;;;;21.30;99.90;;;;;;5024760;28;19928;-84
2023/06/18 08:34:45;;;;;;;;;;;21.50;99.90;;;;;;5015173;28;20259;-86
2023/06/18 08:37:11;;;;;;;;;;;22.80;99.90;;;;;;5003977;28;20318;-83
2023/06/18 08:39:37;;;;;;;;;;;21.80;99.90;;;;;;5026872;28;19929;-84
2023/06/18 08:42:03;;;;;;;;;;;21.90;99.90;;;;;;5002381;28;19956;-83
2023/06/18 08:44:29;;;;;;;;;;;22.00;99.90;;;;;;5025963;28;19980;-84
2023/06/18 08:47:00;;;;;;;;;;;22.10;99.90;;;;;;5006536;28;19995;-84
2023/06/18 08:49:29;;;;;;;;;;;22.30;99.90;;;;;;5010520;28;20326;-84
2023/06/18 08:51:56;;;;;;;;;;;22.40;99.90;;;;;;5008388;28;19925;-84
2023/06/18 08:54:22;;;;;;;;;;;22.60;99.90;;;;;;5006136;28;19978;-85
2023/06/18 08:57:00;;;;;;;;;;;22.80;99.90;;;;;;5008984;28;20399;-84
2023/06/18 08:59:26;;;;;;;;;;;22.90;99.90;;;;;;5006547;28;19926;-84
2023/06/18 09:01:52;;;;;;;;;;;23.00;99.90;;;;;;5014513;28;19932;-85
2023/06/18 09:04:19;;;;;;;;;;;23.10;99.90;;;;;;5013204;28;20011;-84
2023/06/18 09:06:45;;;;;;;;;;;23.20;99.90;;;;;;5028049;28;19925;-83
2023/06/18 09:09:11;;;;;;;;;;;23.30;99.90;;;;;;5014641;28;20335;-85
2023/06/18 09:11:37;;;;;;;;;;;23.50;99.90;;;;;;5008481;28;19979;-85
2023/06/18 09:14:02;;;;;;;;;;;23.60;99.90;;;;;;5020414;28;19926;-85
2023/06/18 09:16:28;;;;;;;;;;;23.80;99.90;;;;;;5029490;28;19979;-85
2023/06/18 09:18:54;;;;;;;;;;;23.80;99.90;;;;;;4990970;28;20048;-85
2023/06/18 09:21:39;;;;;;;;;;;23.90;99.90;;;;;;5011274;28;19926;-86
2023/06/18 09:24:23;;;;;;;;;;;24.00;99.90;;;;;;5017381;28;19932;-85
2023/06/18 09:27:15;;;;;;;;;;;24.20;99.90;;;;;;5030200;28;20289;-86
2023/06/18 09:29:41;;;;;;;;;;;24.30;99.90;;;;;;5000879;28;19925;-86
2023/06/18 09:32:11;;;;;;;;;;;24.80;99.90;;;;;;5010081;28;20444;-84
2023/06/18 09:34:38;;;;;;;;;;;24.50;99.90;;;;;;5012246;28;19952;-86
2023/06/18 09:37:04;;;;;;;;;;;24.50;99.90;;;;;;5030934;28;19925;-85
2023/06/18 09:39:30;;;;;;;;;;;24.60;99.90;;;;;;5014394;28;19925;-86
2023/06/18 09:42:03;;;;;;;;;;;24.50;99.90;;;;;;5009725;28;19937;-87
2023/06/18 09:44:36;;;;;;;;;;;24.60;99.90;;;;;;5029574;28;20024;-87
2023/06/18 09:47:10;;;;;;;;;;;25.00;99.90;;;;;;4999999;28;20355;-87
2023/06/18 09:49:36;;;;;;;;;;;24.90;99.90;;;;;;5029501;28;19926;-85
2023/06/18 09:52:04;;;;;;;;;;;25.10;99.90;;;;;;5030081;28;19971;-87
2023/06/18 09:54:40;;;;;;;;;;;25.20;98.00;;;;;;5011511;28;19976;-86
2023/06/18 09:57:07;;;;;;;;;;;25.30;97.40;;;;;;5012679;28;19976;-85
2023/06/18 09:59:33;;;;;;;;;;;25.30;97.70;;;;;;5029864;28;20262;-84
2023/06/18 10:01:58;;;;;;;;;;;25.30;98.50;;;;;;5010199;28;20004;-85
2023/06/18 10:04:27;;;;;;;;;;;25.40;98.70;;;;;;5023047;28;20023;-86
2023/06/18 10:07:04;;;;;;;;;;;25.50;99.90;;;;;;5014762;28;19925;-86
2023/06/18 10:09:34;;;;;;;;;;;25.50;99.90;;;;;;5023717;28;19974;-86
2023/06/18 10:12:01;;;;;;;;;;;25.60;99.90;;;;;;5034625;28;19925;-87
2023/06/18 10:14:27;;;;;;;;;;;25.80;99.90;;;;;;5032227;28;20338;-86
2023/06/18 10:16:57;;;;;;;;;;;25.80;99.60;;;;;;5013412;28;19925;-86
2023/06/18 10:19:25;;;;;;;;;;;25.80;98.50;;;;;;5023578;28;19925;-86
2023/06/18 10:22:03;;;;;;;;;;;25.80;97.60;;;;;;5017309;28;19925;-86
2023/06/18 10:24:34;;;;;;;;;;;25.80;98.40;;;;;;5033081;28;19933;-87
2023/06/18 10:27:00;;;;;;;;;;;25.80;96.60;;;;;;5033707;28;19925;-86
2023/06/18 10:29:30;;;;;;;;;;;25.80;95.90;;;;;;5030590;28;19933;-87
2023/06/18 10:31:58;;;;;;;;;;;26.00;96.00;;;;;;5013632;28;19932;-86
2023/06/18 10:34:24;;;;;;;;;;;26.00;95.00;;;;;;5030162;28;19926;-86
2023/06/18 10:36:53;;;;;;;;;;;26.30;94.60;;;;;;5034180;28;19932;-88
2023/06/18 10:39:18;;;;;;;;;;;26.30;95.00;;;;;;5030711;28;19936;-87
2023/06/18 10:41:47;;;;;;;;;;;26.50;93.90;;;;;;5017136;28;19925;-86
2023/06/18 10:44:15;;;;;;;;;;;27.30;93.40;;;;;;4996226;28;20327;-87
2023/06/18 10:47:01;;;;;;;;;;;26.70;93.60;;;;;;5032426;28;19925;-86
2023/06/18 10:49:27;;;;;;;;;;;26.20;92.70;;;;;;5025120;28;19988;-87
2023/06/18 10:52:01;;;;;;;;;;;26.60;93.00;;;;;;5033012;28;19929;-87
2023/06/18 10:54:30;;;;;;;;;;;26.60;92.90;;;;;;5011873;28;19925;-87
2023/06/18 10:56:56;;;;;;;;;;;26.70;92.40;;;;;;5033423;28;20015;-86
2023/06/18 10:59:35;;;;;;;;;;;26.70;90.80;;;;;;5014596;28;19967;-86
2023/06/18 11:02:01;;;;;;;;;;;26.70;91.60;;;;;;5032505;28;20014;-87
2023/06/18 11:04:31;;;;;;;;;;;26.90;92.00;;;;;;5009672;28;20285;-86
2023/06/18 11:07:19;;;;;;;;;;;27.00;88.80;;;;;;5034152;28;20285;-86
2023/06/18 11:09:58;;;;;;;;;;;27.10;87.50;;;;;;5013907;28;19948;-87
2023/06/18 11:12:25;;;;;;;;;;;27.20;89.60;;;;;;5032794;28;19929;-86
2023/06/18 11:15:10;;;;;;;;;;;27.30;89.50;;;;;;5016543;28;19925;-86
2023/06/18 11:17:35;;;;;;;;;;;27.40;86.40;;;;;;5012834;28;19935;-86
2023/06/18 11:20:01;;;;;;;;;;;27.40;84.60;;;;;;5012386;28;19925;-86
2023/06/18 11:22:28;;;;;;;;;;;27.40;89.20;;;;;;5045107;28;19932;-86
2023/06/18 11:24:55;;;;;;;;;;;27.50;88.50;;;;;;5012556;28;20278;-86
2023/06/18 11:27:21;;;;;;;;;;;27.60;88.60;;;;;;5017093;28;19937;-86
2023/06/18 11:29:47;;;;;;;;;;;27.70;84.50;;;;;;5032519;28;20276;-87
2023/06/18 11:32:13;;;;;;;;;;;27.80;88.50;;;;;;5016572;28;19996;-86
2023/06/18 11:34:45;;;;;;;;;;;27.90;88.00;;;;;;5015855;28;19976;-87
2023/06/18 11:37:10;;;;;;;;;;;27.90;86.00;;;;;;5000641;28;19926;-86
2023/06/18 11:39:36;;;;;;;;;;;27.80;84.80;;;;;;4997056;28;19988;-85
2023/06/18 11:42:22;;;;;;;;;;;27.80;84.40;;;;;;5009861;28;20285;-85
2023/06/18 11:44:51;;;;;;;;;;;27.80;85.40;;;;;;5032019;28;19954;-86
2023/06/18 11:47:17;;;;;;;;;;;27.70;81.90;;;;;;5014262;28;20016;-86
2023/06/18 11:49:44;;;;;;;;;;;27.70;83.70;;;;;;5012350;28;20008;-84
2023/06/18 11:52:14;;;;;;;;;;;27.60;79.50;;;;;;5012109;28;20389;-84
2023/06/18 11:54:40;;;;;;;;;;;27.60;78.20;;;;;;5011354;28;19926;-85
2023/06/18 11:57:16;;;;;;;;;;;27.60;78.80;;;;;;5016535;28;19925;-85
2023/06/18 11:59:42;;;;;;;;;;;27.60;79.60;;;;;;5033130;28;20262;-85
2023/06/18 12:02:11;;;;;;;;;;;27.60;78.50;;;;;;5008684;28;19932;-87
2023/06/18 12:04:36;;;;;;;;;;;27.60;79.90;;;;;;5027507;28;19931;-86
2023/06/18 12:07:02;;;;;;;;;;;27.60;77.60;;;;;;5032544;28;20007;-86
2023/06/18 12:09:35;;;;;;;;;;;27.60;77.90;;;;;;5032437;28;19925;-86
2023/06/18 12:12:07;;;;;;;;;;;27.60;77.50;;;;;;5013110;28;20336;-86
2023/06/18 12:14:36;;;;;;;;;;;27.60;78.70;;;;;;5029788;28;19925;-86
2023/06/18 12:17:06;;;;;;;;;;;27.70;77.80;;;;;;5009738;28;19975;-85
2023/06/18 12:19:32;;;;;;;;;;;27.90;76.90;;;;;;5026278;28;19925;-86
2023/06/18 12:21:58;;;;;;;;;;;27.90;77.00;;;;;;5012609;28;19979;-85
2023/06/18 12:24:28;;;;;;;;;;;28.10;78.40;;;;;;5013380;28;20015;-85
2023/06/18 12:26:54;;;;;;;;;;;28.20;75.70;;;;;;5016265;28;20024;-86
2023/06/18 12:29:19;;;;;;;;;;;28.20;75.80;;;;;;5032107;28;19932;-86
2023/06/18 12:31:59;;;;;;;;;;;28.30;76.30;;;;;;5012827;28;20468;-86
2023/06/18 12:34:25;;;;;;;;;;;28.40;75.60;;;;;;5004701;28;20012;-86
2023/06/18 12:36:53;;;;;;;;;;;28.50;76.80;;;;;;5012780;28;20023;-86
2023/06/18 12:39:19;;;;;;;;;;;28.70;74.20;;;;;;5010518;28;20026;-85
2023/06/18 12:41:44;;;;;;;;;;;28.80;73.50;;;;;;5044689;28;19968;-86
2023/06/18 12:44:10;;;;;;;;;;;28.90;73.00;;;;;;4998854;28;20019;-87
2023/06/18 12:46:36;;;;;;;;;;;29.00;72.20;;;;;;5013710;28;19934;-86
2023/06/18 12:49:07;;;;;;;;;;;29.10;71.60;;;;;;4998504;28;19925;-85
2023/06/18 12:51:43;;;;;;;;;;;29.00;73.50;;;;;;5032066;28;19925;-86
2023/06/18 12:54:16;;;;;;;;;;;28.90;72.90;;;;;;5031586;28;20019;-86
2023/06/18 12:56:47;;;;;;;;;;;28.80;73.10;;;;;;5002822;28;19925;-86
2023/06/18 12:59:23;;;;;;;;;;;28.70;73.00;;;;;;5031936;28;20028;-86
2023/06/18 13:01:49;;;;;;;;;;;28.70;74.20;;;;;;5029812;28;19925;-86
2023/06/18 13:04:16;;;;;;;;;;;28.50;73.80;;;;;;5031006;28;20257;-86
2023/06/18 13:06:42;;;;;;;;;;;28.50;71.30;;;;;;5031758;28;19925;-85
2023/06/18 13:09:08;;;;;;;;;;;28.60;71.60;;;;;;5002446;28;20388;-86
2023/06/18 13:11:34;;;;;;;;;;;28.80;70.30;;;;;;4994091;28;19926;-86
2023/06/18 13:14:00;;;;;;;;;;;29.00;70.00;;;;;;5007372;28;19929;-86
2023/06/18 13:16:26;;;;;;;;;;;29.20;71.20;;;;;;5025571;28;20330;-86
2023/06/18 13:18:51;;;;;;;;;;;29.40;70.50;;;;;;5013665;28;19933;-86
2023/06/18 13:21:17;;;;;;;;;;;29.70;68.90;;;;;;5032673;28;19948;-85
2023/06/18 13:23:43;;;;;;;;;;;29.70;68.70;;;;;;5014818;28;19972;-86
2023/06/18 13:26:09;;;;;;;;;;;29.70;66.00;;;;;;5015206;28;19929;-86
2023/06/18 13:28:35;;;;;;;;;;;29.90;68.70;;;;;;5031584;28;19925;-86
2023/06/18 13:31:00;;;;;;;;;;;30.00;65.80;;;;;;5030742;28;20322;-86
2023/06/18 13:33:26;;;;;;;;;;;30.10;67.70;;;;;;5026953;28;19941;-86
2023/06/18 13:35:52;;;;;;;;;;;30.00;64.30;;;;;;5031598;28;19963;-85
2023/06/18 13:38:20;;;;;;;;;;;29.90;63.80;;;;;;5015152;28;19925;-86
2023/06/18 13:40:46;;;;;;;;;;;29.90;64.40;;;;;;5031577;28;19925;-86
2023/06/18 13:43:12;;;;;;;;;;;29.90;63.50;;;;;;5017584;28;19931;-87
2023/06/18 13:45:39;;;;;;;;;;;29.90;64.20;;;;;;5015646;28;20012;-87
2023/06/18 13:48:06;;;;;;;;;;;30.00;63.10;;;;;;5000821;28;19925;-87
2023/06/18 13:50:32;;;;;;;;;;;30.00;63.20;;;;;;5000914;28;19968;-87
2023/06/18 13:52:58;;;;;;;;;;;30.10;66.40;;;;;;5035291;28;19925;-86
2023/06/18 13:55:25;;;;;;;;;;;30.10;64.40;;;;;;5031573;28;19926;-86
2023/06/18 13:57:51;;;;;;;;;;;29.90;64.50;;;;;;5034565;28;20250;-87
2023/06/18 14:00:17;;;;;;;;;;;29.90;65.00;;;;;;5035358;28;19928;-86
2023/06/18 14:02:43;;;;;;;;;;;29.90;66.10;;;;;;5034212;28;20011;-86
2023/06/18 14:05:11;;;;;;;;;;;30.00;64.10;;;;;;5000124;28;20012;-87
2023/06/18 14:07:36;;;;;;;;;;;30.10;62.70;;;;;;5019019;28;19932;-87
2023/06/18 14:10:05;;;;;;;;;;;30.10;65.10;;;;;;5019000;28;20365;-86
2023/06/18 14:12:31;;;;;;;;;;;30.20;65.10;;;;;;5035124;28;20000;-85
2023/06/18 14:14:57;;;;;;;;;;;30.10;63.30;;;;;;5000210;28;19925;-86
2023/06/18 14:17:23;;;;;;;;;;;30.20;65.60;;;;;;5015889;28;20086;-86
2023/06/18 14:19:49;;;;;;;;;;;30.20;64.10;;;;;;5010758;28;20297;-86
2023/06/18 14:22:15;;;;;;;;;;;30.10;61.70;;;;;;5015408;28;19933;-86